EW2131 Weather Reports


Display with metric or nautical units.
time (UTC)temp
F
wind
direction
speed
MPH
gust
MPH
rain 1hr
in
rain 24hr
in
rain mn
in
humidity
%
barometer
mb
20210618093931 59 189 3.0 5.0 0.00 0.00 0.00 34 1030.7
20210618093031 59 270 0.0 0.0 0.00 0.00 0.00 33 1030.8
20210618092032 59 176 1.0 2.0 0.00 0.00 0.00 33 1030.5
20210618091131 59 186 4.0 6.0 0.00 0.00 0.00 33 1030.6
20210618090134 59 202 1.0 3.0 0.00 0.00 0.00 34 1030.8
20210618090031 59 224 2.0 3.0 0.00 0.00 0.00 34 1030.7
20210618085032 60 202 1.0 4.0 0.00 0.00 0.00 33 1030.8
20210618084131 60 202 2.0 4.0 0.00 0.00 0.00 32 1030.7
20210618083131 61 359 0.0 1.0 0.00 0.00 0.00 32 1030.7
20210618082132 62 202 2.0 3.0 0.00 0.00 0.00 30 1030.7
20210618081132 63 257 0.0 2.0 0.00 0.00 0.00 29 1030.7
20210618080134 65 277 1.0 3.0 0.00 0.00 0.00 28 1030.5
20210618075133 64 189 8.0 12.0 0.00 0.00 0.00 28 1030.5
20210618074232 64 202 4.0 6.0 0.00 0.00 0.00 28 1030.5
20210618073331 64 209 6.0 10.0 0.00 0.00 0.00 28 1030.4
20210618072333 65 200 3.0 5.0 0.00 0.00 0.00 28 1030.7
20210618071431 65 156 7.0 12.0 0.00 0.00 0.00 28 1030.7
20210618070431 65 191 4.0 7.0 0.00 0.00 0.00 28 1030.7
20210618065530 65 173 6.0 10.0 0.00 0.00 0.00 28 1030.7
20210618064533 65 209 4.0 7.0 0.00 0.00 0.00 28 1030.7
20210618063630 65 219 2.0 4.0 0.00 0.00 0.00 28 1030.5
20210618062631 65 201 4.0 7.0 0.00 0.00 0.00 27 1030.7
20210618061633 64 172 5.0 9.0 0.00 0.00 0.00 29 1030.7
20210618060730 64 153 6.0 8.0 0.00 0.00 0.00 29 1031.1
20210618055747 64 195 2.0 3.0 0.00 0.00 0.00 30 1031.2
20210618054745 63 191 2.0 8.0 0.00 0.00 0.00 31 1030.9
20210618053844 64 202 1.0 2.0 0.00 0.00 0.00 30 1030.9
20210618053743 64 202 1.0 2.0 0.00 0.00 0.00 30 1031.0
20210618052746 64 187 6.0 8.0 0.00 0.00 0.00 29 1030.9
20210618051747 64 198 4.0 7.0 0.00 0.00 0.00 30 1031.1
20210618050845 64 199 4.0 8.0 0.00 0.00 0.00 29 1031.2
20210618045843 65 200 7.0 14.0 0.00 0.00 0.00 27 1031.3
20210618044845 65 201 7.0 9.0 0.00 0.00 0.00 28 1031.0
20210618043943 65 218 5.0 9.0 0.00 0.00 0.00 28 1031.2
20210618042944 65 212 5.0 9.0 0.00 0.00 0.00 27 1031.3
20210618041945 66 200 4.0 6.0 0.00 0.00 0.00 27 1031.3
20210618040947 66 187 6.0 9.0 0.00 0.00 0.00 27 1031.2
20210618040045 66 193 4.0 9.0 0.00 0.00 0.00 29 1031.0
20210618035144 66 229 3.0 4.0 0.00 0.00 0.00 29 1030.9
20210618034145 66 200 6.0 9.0 0.00 0.00 0.00 27 1030.8
20210618033144 67 214 2.0 4.0 0.00 0.00 0.00 27 1030.7
20210618033045 67 201 3.0 6.0 0.00 0.00 0.00 27 1030.5
20210618032045 68 196 5.0 8.0 0.00 0.00 0.00 26 1030.6
20210618031144 68 210 7.0 10.0 0.00 0.00 0.00 27 1030.4
20210618030146 68 163 8.0 13.0 0.00 0.00 0.00 27 1030.4
20210618025244 68 170 7.0 11.0 0.00 0.00 0.00 26 1030.2
20210618024245 69 161 5.0 8.0 0.00 0.00 0.00 26 1030.1
20210618023245 70 192 5.0 8.0 0.00 0.00 0.00 26 1030.1
20210618022244 71 166 7.0 9.0 0.00 0.00 0.00 24 1030.0
20210618021244 72 155 6.0 9.0 0.00 0.00 0.00 24 1030.0
20210618020245 72 155 6.0 11.0 0.00 0.00 0.00 23 1030.2
20210618015245 73 169 5.0 8.0 0.00 0.00 0.00 22 1029.9
20210618014245 73 195 2.0 5.0 0.00 0.00 0.00 22 1030.1
20210618013244 73 166 5.0 7.0 0.00 0.00 0.00 22 1030.1
20210618012246 73 170 6.0 9.0 0.00 0.00 0.00 22 1030.1
20210618011245 73 122 1.0 4.0 0.00 0.00 0.00 22 1029.9
20210618010245 73 199 3.0 6.0 0.00 0.00 0.00 22 1029.8
20210618005342 74 181 5.0 7.0 0.00 0.00 0.00 22 1029.9
20210618005244 74 175 3.0 4.0 0.00 0.00 0.00 22 1029.9
20210618004246 74 200 3.0 7.0 0.00 0.00 0.00 22 1029.8
20210618003246 74 148 7.0 12.0 0.00 0.00 0.00 21 1029.9
20210618002247 74 143 3.0 6.0 0.00 0.00 0.00 23 1030.1
20210618001245 74 138 1.0 3.0 0.00 0.00 0.00 22 1029.9
20210618000244 75 309 3.0 6.0 0.00 0.00 0.00 21 1029.8
20210617235246 75 142 3.0 6.0 0.00 0.00 0.00 21 1030.2
20210617234343 75 166 7.0 10.0 0.00 0.00 0.00 21 1030.3
20210617233346 75 155 5.0 8.0 0.00 0.00 0.00 20 1030.3
20210617232444 76 154 6.0 11.0 0.00 0.00 0.00 20 1030.4
20210617231444 75 199 4.0 10.0 0.00 0.00 0.00 21 1030.1
20210617230542 76 150 5.0 9.0 0.00 0.00 0.00 24 1030.1
20210617225544 76 67 0.0 1.0 0.00 0.00 0.00 20 1029.9
20210617224545 76 337 3.0 4.0 0.00 0.00 0.00 20 1029.9
20210617224446 76 337 2.0 2.0 0.00 0.00 0.00 21 1029.9
20210617223445 77 4 5.0 8.0 0.00 0.00 0.00 21 1030.0
20210617222543 77 2 5.0 7.0 0.00 0.00 0.00 21 1029.9
20210617221545 74 95 3.0 7.0 0.00 0.00 0.00 24 1030.3
20210617220544 73 171 4.0 8.0 0.00 0.00 0.00 30 1030.5
20210617215543 75 7 1.0 2.0 0.00 0.00 0.00 26 1030.1
20210617214643 79 125 3.0 5.0 0.00 0.00 0.00 21 1030.4
20210617213645 79 330 2.0 5.0 0.00 0.00 0.00 16 1029.9
20210617212644 80 346 6.0 8.0 0.00 0.00 0.00 14 1029.8
20210617211645 81 348 4.0 7.0 0.00 0.00 0.00 15 1030.0
20210617210645 83 332 4.0 6.0 0.00 0.00 0.00 14 1029.8
20210617205644 86 108 1.0 2.0 0.00 0.00 0.00 12 1030.0
20210617204645 86 181 2.0 4.0 0.00 0.00 0.00 12 1029.9
20210617203645 86 180 0.0 0.0 0.00 0.00 0.00 11 1030.0
20210617202643 85 204 4.0 6.0 0.00 0.00 0.00 12 1030.0
20210617201644 85 195 6.0 11.0 0.00 0.00 0.00 11 1029.9
20210617200742 85 177 6.0 12.0 0.00 0.00 0.00 11 1030.0
20210617195745 84 177 9.0 16.0 0.00 0.00 0.00 11 1030.0
20210617194843 84 202 1.0 2.0 0.00 0.00 0.00 12 1030.3
20210617193843 83 206 4.0 11.0 0.00 0.00 0.00 11 1030.4
20210617192845 84 116 4.0 6.0 0.00 0.00 0.00 12 1030.5
20210617191943 84 348 4.0 7.0 0.00 0.00 0.00 11 1030.7
20210617190945 84 169 7.0 10.0 0.00 0.00 0.00 12 1030.8
20210617185946 84 188 5.0 7.0 0.00 0.00 0.00 11 1031.0
20210617184944 84 150 1.0 2.0 0.00 0.00 0.00 11 1031.0
20210617183945 84 3 2.0 4.0 0.00 0.00 0.00 11 1031.2
20210617182944 86 28 5.0 9.0 0.00 0.00 0.00 11 1030.9
20210617182043 87 140 2.0 4.0 0.00 0.00 0.00 11 1031.1
20210617181042 86 238 2.0 4.0 0.00 0.00 0.00 11 1031.0
20210617180044 85 173 3.0 7.0 0.00 0.00 0.00 11 1031.1
20210617175144 83 169 2.0 5.0 0.00 0.00 0.00 11 1031.4
20210617174143 83 97 3.0 5.0 0.00 0.00 0.00 11 1031.6
20210617173144 84 94 2.0 4.0 0.00 0.00 0.00 11 1031.6
20210617172242 84 182 6.0 8.0 0.00 0.00 0.00 12 1031.6
20210617171243 84 178 4.0 5.0 0.00 0.00 0.00 11 1031.6
20210617170244 83 193 3.0 7.0 0.00 0.00 0.00 11 1031.6
20210617165243 83 176 9.0 12.0 0.00 0.00 0.00 12 1031.9
20210617164245 83 202 3.0 6.0 0.00 0.00 0.00 12 1031.8
20210617163245 83 158 5.0 9.0 0.00 0.00 0.00 13 1031.9
20210617162244 83 153 6.0 9.0 0.00 0.00 0.00 12 1032.0
20210617161343 83 199 5.0 7.0 0.00 0.00 0.00 13 1032.0
20210617160442 84 198 8.0 14.0 0.00 0.00 0.00 12 1032.1
20210617155444 83 231 3.0 5.0 0.00 0.00 0.00 17 1032.3
20210617154543 80 360 0.0 1.0 0.00 0.00 0.00 20 1032.3
20210617153543 78 90 0.0 0.0 0.00 0.00 0.00 22 1032.4
20210617152545 77 67 1.0 3.0 0.00 0.00 0.00 24 1032.6
20210617151643 75 67 0.0 1.0 0.00 0.00 0.00 26 1032.8
20210617150644 74 22 3.0 4.0 0.00 0.00 0.00 27 1032.8
20210617145644 72 22 2.0 4.0 0.00 0.00 0.00 31 1032.9
20210617144644 69 67 0.0 1.0 0.00 0.00 0.00 31 1032.9
20210617143731 68 360 0.0 0.0 0.00 0.00 0.00 33 1033.1
20210617142829 67 89 1.0 2.0 0.00 0.00 0.00 32 1033.2
20210617141830 66 360 0.0 0.0 0.00 0.00 0.00 33 1033.3
20210617140829 63 178 3.0 6.0 0.00 0.00 0.00 34 1033.3
20210617135829 61 148 4.0 6.0 0.00 0.00 0.00 36 1033.3
20210617134829 59 171 7.0 9.0 0.00 0.00 0.00 38 1033.4
20210617133831 59 177 3.0 6.0 0.00 0.00 0.00 36 1033.4
20210617132830 59 157 2.0 4.0 0.00 0.00 0.00 35 1033.4
20210617131837 58 185 2.0 5.0 0.00 0.00 0.00 34 1033.6
20210617130832 58 225 1.0 2.0 0.00 0.00 0.00 35 1033.6
20210617125831 57 190 5.0 7.0 0.00 0.00 0.00 35 1033.6
20210617124829 57 202 1.0 3.0 0.00 0.00 0.00 35 1033.7
20210617123831 57 201 2.0 3.0 0.00 0.00 0.00 35 1033.6
20210617122929 58 198 3.0 5.0 0.00 0.00 0.00 34 1033.6
20210617121929 58 198 2.0 4.0 0.00 0.00 0.00 34 1033.7
20210617120930 58 188 5.0 7.0 0.00 0.00 0.00 33 1033.5
20210617115930 58 180 6.0 7.0 0.00 0.00 0.00 32 1033.5
20210617114930 58 202 3.0 4.0 0.00 0.00 0.00 32 1033.3
20210617114030 58 192 4.0 6.0 0.00 0.00 0.00 33 1033.4
20210617113031 58 163 4.0 7.0 0.00 0.00 0.00 33 1033.1
20210617112031 59 180 1.0 3.0 0.00 0.00 0.00 32 1033.1
20210617111029 59 202 1.0 4.0 0.00 0.00 0.00 32 1033.1
20210617110030 60 201 1.0 3.0 0.00 0.00 0.00 30 1032.8
20210617105129 62 241 0.0 0.0 0.00 0.00 0.00 27 1032.7
20210617104129 64 292 0.0 1.0 0.00 0.00 0.00 26 1032.7
20210617103129 64 190 7.0 15.0 0.00 0.00 0.00 26 1032.6
20210617102131 64 165 7.0 12.0 0.00 0.00 0.00 27 1032.5
20210617101229 63 225 3.0 6.0 0.00 0.00 0.00 27 1032.4
20210617100230 62 218 4.0 9.0 0.00 0.00 0.00 29 1032.6
20210617095230 61 189 4.0 8.0 0.00 0.00 0.00 30 1032.6
20210617094229 60 212 3.0 6.0 0.00 0.00 0.00 31 1032.7